createdAt,value
2022-07-29T00:01:42.398Z,1.63
2022-07-29T00:04:10.008Z,1.70
2022-07-29T00:06:37.647Z,1.60
2022-07-29T00:09:06.538Z,1.42
2022-07-29T00:11:34.161Z,1.48
2022-07-29T00:14:01.616Z,1.60
2022-07-29T00:16:29.301Z,1.75
2022-07-29T00:18:59.548Z,1.67
2022-07-29T00:21:29.557Z,1.40
2022-07-29T00:23:57.303Z,1.70
2022-07-29T00:26:25.008Z,1.73
2022-07-29T00:29:02.074Z,1.67
2022-07-29T00:31:40.108Z,1.70
2022-07-29T00:34:27.661Z,1.85
2022-07-29T00:36:56.210Z,1.60
2022-07-29T00:39:23.807Z,2.10
2022-07-29T00:41:51.806Z,1.80
2022-07-29T00:44:19.453Z,1.80
2022-07-29T00:46:47.110Z,1.73
2022-07-29T00:49:14.942Z,1.80
2022-07-29T00:51:42.566Z,1.92
2022-07-29T00:54:10.136Z,1.77
2022-07-29T00:56:37.938Z,2.17
2022-07-29T00:59:05.376Z,1.75
2022-07-29T01:01:32.781Z,1.98
2022-07-29T01:04:01.275Z,2.15
2022-07-29T01:06:28.849Z,1.80
2022-07-29T01:08:56.605Z,2.08
2022-07-29T01:11:24.133Z,1.80
2022-07-29T01:13:51.580Z,1.90
2022-07-29T01:16:34.093Z,1.70
2022-07-29T01:19:24.991Z,2.30
2022-07-29T01:21:55.442Z,2.03
2022-07-29T01:24:22.928Z,2.00
2022-07-29T01:26:53.374Z,1.77
2022-07-29T01:29:26.501Z,2.05
2022-07-29T01:32:02.828Z,2.10
2022-07-29T01:34:50.137Z,1.83
2022-07-29T01:37:23.276Z,1.90
2022-07-29T01:39:53.341Z,1.90
2022-07-29T01:42:27.003Z,2.40
2022-07-29T01:44:54.537Z,2.22
2022-07-29T01:47:25.239Z,2.22
2022-07-29T01:49:54.742Z,1.90
2022-07-29T01:52:25.474Z,2.20
2022-07-29T01:54:55.575Z,2.15
2022-07-29T01:57:26.932Z,2.22
2022-07-29T01:59:54.566Z,1.90
2022-07-29T02:02:22.855Z,2.45
2022-07-29T02:04:51.651Z,1.73
2022-07-29T02:07:21.373Z,1.63
2022-07-29T02:09:51.390Z,1.92
2022-07-29T02:12:20.002Z,1.80
2022-07-29T02:14:49.650Z,1.80
2022-07-29T02:17:20.202Z,2.00
2022-07-29T02:19:48.075Z,2.05
2022-07-29T02:22:16.376Z,2.00
2022-07-29T02:24:46.095Z,2.05
2022-07-29T02:27:13.914Z,1.90
2022-07-29T02:29:41.806Z,1.90
2022-07-29T02:32:10.831Z,2.10
2022-07-29T02:34:40.381Z,2.20
2022-07-29T02:37:09.404Z,2.30
2022-07-29T02:39:38.595Z,2.10
2022-07-29T02:42:08.908Z,2.10
2022-07-29T02:44:36.518Z,2.28
2022-07-29T02:47:03.747Z,2.30
2022-07-29T02:49:31.001Z,2.10
2022-07-29T02:52:06.110Z,1.95
2022-07-29T02:54:42.933Z,2.15
2022-07-29T02:57:12.797Z,2.22
2022-07-29T02:59:41.303Z,2.38
2022-07-29T03:02:08.965Z,2.45
2022-07-29T03:04:40.571Z,2.45
2022-07-29T03:07:08.411Z,2.00
2022-07-29T03:09:35.863Z,2.13
2022-07-29T03:12:03.332Z,2.15
2022-07-29T03:14:31.694Z,2.30
2022-07-29T03:16:59.903Z,2.58
2022-07-29T03:19:27.890Z,2.17
2022-07-29T03:21:57.503Z,2.00
2022-07-29T03:24:28.701Z,2.20
2022-07-29T03:26:56.565Z,2.08
2022-07-29T03:29:23.848Z,2.30
2022-07-29T03:31:52.258Z,2.00
2022-07-29T03:34:19.621Z,2.25
2022-07-29T03:36:51.350Z,1.95
2022-07-29T03:39:22.495Z,2.30
2022-07-29T03:41:51.434Z,2.50
2022-07-29T03:44:19.589Z,2.00
2022-07-29T03:46:47.911Z,2.55
2022-07-29T03:49:16.705Z,2.35
2022-07-29T03:51:44.358Z,2.30
2022-07-29T03:54:12.880Z,1.80
2022-07-29T03:56:42.418Z,2.53
2022-07-29T03:59:09.792Z,2.30
2022-07-29T04:01:38.421Z,2.30
2022-07-29T04:04:06.430Z,2.20
2022-07-29T04:06:43.736Z,2.13
2022-07-29T04:09:11.963Z,1.95
2022-07-29T04:12:01.601Z,2.30
2022-07-29T04:14:30.177Z,2.35
2022-07-29T04:16:58.624Z,2.35
2022-07-29T04:19:26.022Z,2.10
2022-07-29T04:21:53.343Z,2.40
2022-07-29T04:24:20.917Z,2.00
2022-07-29T04:26:48.685Z,2.25
2022-07-29T04:29:16.403Z,2.40
2022-07-29T04:31:45.142Z,2.30
2022-07-29T04:34:13.334Z,2.30
2022-07-29T04:36:40.885Z,2.67
2022-07-29T04:39:08.191Z,2.40
2022-07-29T04:41:35.496Z,2.40
2022-07-29T04:44:07.025Z,2.38
2022-07-29T04:46:34.996Z,2.60
2022-07-29T04:49:02.580Z,2.38
2022-07-29T04:51:29.901Z,2.30
2022-07-29T04:53:57.176Z,2.08
2022-07-29T04:56:24.577Z,2.30
2022-07-29T04:58:51.892Z,2.40
2022-07-29T05:01:19.261Z,2.30
2022-07-29T05:03:46.851Z,2.05
2022-07-29T05:06:14.440Z,2.88
2022-07-29T05:08:41.924Z,2.22
2022-07-29T05:11:11.513Z,2.47
2022-07-29T05:13:45.756Z,2.30
2022-07-29T05:16:14.354Z,2.40
2022-07-29T05:18:41.933Z,2.47
2022-07-29T05:21:09.377Z,2.60
2022-07-29T05:23:36.810Z,2.65
2022-07-29T05:26:04.228Z,2.33
2022-07-29T05:28:34.924Z,2.45
2022-07-29T05:31:03.028Z,2.60
2022-07-29T05:33:35.222Z,2.60
2022-07-29T05:36:06.663Z,2.25
2022-07-29T05:38:34.795Z,2.75
2022-07-29T05:41:03.328Z,2.58
2022-07-29T05:43:30.665Z,2.63
2022-07-29T05:45:58.352Z,2.45
2022-07-29T05:48:26.377Z,2.92
2022-07-29T05:50:53.766Z,2.75
2022-07-29T05:53:21.269Z,2.92
2022-07-29T05:55:51.980Z,2.75
2022-07-29T05:58:19.988Z,2.88
2022-07-29T06:00:48.060Z,2.58
2022-07-29T06:03:15.688Z,3.08
2022-07-29T06:05:43.254Z,2.95
2022-07-29T06:08:11.836Z,2.80
2022-07-29T06:10:39.448Z,3.00
2022-07-29T06:13:07.100Z,2.90
2022-07-29T06:15:34.739Z,2.97
2022-07-29T06:18:02.419Z,2.97
2022-07-29T06:20:33.232Z,3.03
2022-07-29T06:23:01.069Z,2.90
2022-07-29T06:25:35.710Z,2.78
2022-07-29T06:28:03.346Z,3.10
2022-07-29T06:30:30.969Z,3.15
2022-07-29T06:32:58.390Z,2.60
2022-07-29T06:35:41.043Z,2.63
2022-07-29T06:38:29.940Z,3.08
2022-07-29T06:41:06.953Z,2.75
2022-07-29T06:43:50.349Z,2.80
2022-07-29T06:46:21.358Z,2.53
2022-07-29T06:48:49.003Z,3.22
2022-07-29T06:51:17.352Z,3.25
2022-07-29T06:53:59.046Z,2.70
2022-07-29T06:56:29.900Z,2.85
2022-07-29T06:58:57.222Z,3.50
2022-07-29T07:01:24.606Z,3.55
2022-07-29T07:03:52.085Z,3.03
2022-07-29T07:06:19.530Z,3.45
2022-07-29T07:08:47.003Z,3.15
2022-07-29T07:11:15.682Z,2.70
2022-07-29T07:13:43.230Z,3.42
2022-07-29T07:16:10.780Z,3.03
2022-07-29T07:18:38.227Z,3.35
2022-07-29T07:21:06.861Z,3.20
2022-07-29T07:23:34.239Z,3.10
2022-07-29T07:26:01.694Z,2.72
2022-07-29T07:28:28.968Z,3.00
2022-07-29T07:30:57.543Z,2.30
2022-07-29T07:33:25.858Z,2.10
2022-07-29T07:35:53.253Z,2.45
2022-07-29T07:38:20.780Z,2.03
2022-07-29T07:40:48.297Z,2.50
2022-07-29T07:43:15.775Z,2.17
2022-07-29T07:45:43.500Z,2.10
2022-07-29T07:48:11.310Z,2.22
2022-07-29T07:50:38.864Z,1.80
2022-07-29T07:53:06.479Z,2.33
2022-07-29T07:55:53.474Z,2.45
2022-07-29T07:58:21.681Z,1.88
2022-07-29T08:00:49.676Z,2.42
2022-07-29T08:03:17.517Z,2.03
2022-07-29T08:05:45.184Z,2.10
2022-07-29T08:08:12.644Z,2.28
2022-07-29T08:10:57.056Z,2.30
2022-07-29T08:13:28.328Z,2.03
2022-07-29T08:16:01.043Z,2.20
2022-07-29T08:18:32.925Z,2.10
2022-07-29T08:21:00.384Z,2.42
2022-07-29T08:23:48.546Z,1.85
2022-07-29T08:26:18.306Z,2.20
2022-07-29T08:28:47.125Z,2.08
2022-07-29T08:31:15.198Z,2.00
2022-07-29T08:33:42.935Z,2.20
2022-07-29T08:36:11.615Z,1.98
2022-07-29T08:38:39.240Z,2.00
2022-07-29T08:41:07.294Z,1.80
2022-07-29T08:43:38.617Z,1.88
2022-07-29T08:46:06.293Z,2.30
2022-07-29T08:48:34.370Z,1.90
2022-07-29T08:51:02.513Z,2.00
2022-07-29T08:53:32.051Z,1.98
2022-07-29T08:56:00.201Z,2.40
2022-07-29T08:58:28.574Z,2.08
2022-07-29T09:00:57.853Z,1.98
2022-07-29T09:03:27.143Z,2.00
2022-07-29T09:05:55.099Z,1.70
2022-07-29T09:08:22.792Z,1.83
2022-07-29T09:10:50.506Z,2.22
2022-07-29T09:13:19.356Z,2.10
2022-07-29T09:15:48.425Z,1.95
2022-07-29T09:18:36.930Z,1.77
2022-07-29T09:21:23.525Z,1.65
2022-07-29T09:24:10.949Z,1.52
2022-07-29T09:26:40.701Z,1.75
2022-07-29T09:29:15.472Z,1.60
2022-07-29T09:31:45.606Z,2.25
2022-07-29T09:34:13.883Z,1.70
2022-07-29T09:36:46.060Z,1.80
2022-07-29T09:39:14.189Z,1.90
2022-07-29T09:41:54.080Z,2.15
2022-07-29T09:44:22.280Z,1.40
2022-07-29T09:47:07.177Z,1.88
2022-07-29T09:49:36.532Z,1.60
2022-07-29T09:52:08.577Z,1.50
2022-07-29T09:54:40.094Z,1.70
2022-07-29T09:57:25.229Z,1.40
2022-07-29T10:00:00.157Z,1.50
2022-07-29T10:02:32.156Z,1.45
2022-07-29T10:05:01.084Z,1.50
2022-07-29T10:07:44.544Z,1.30
2022-07-29T10:10:12.429Z,1.75
2022-07-29T10:13:04.613Z,1.83
2022-07-29T10:15:38.272Z,1.80
2022-07-29T10:18:05.963Z,1.70
2022-07-29T10:20:34.485Z,1.50
2022-07-29T10:23:02.187Z,1.40
2022-07-29T10:25:29.873Z,1.30
2022-07-29T10:27:57.462Z,1.50
2022-07-29T10:30:25.993Z,1.55
2022-07-29T10:32:58.699Z,1.50
2022-07-29T10:35:27.275Z,1.30
2022-07-29T10:38:04.551Z,1.30
2022-07-29T10:41:04.444Z,1.55
2022-07-29T10:43:39.196Z,1.40
2022-07-29T10:46:10.378Z,1.60
2022-07-29T10:48:58.286Z,1.80
2022-07-29T10:51:25.971Z,1.55
2022-07-29T10:53:55.894Z,1.65
2022-07-29T10:56:29.537Z,1.50
2022-07-29T10:59:15.916Z,1.63
2022-07-29T11:01:56.686Z,1.60
2022-07-29T11:04:47.356Z,1.35
2022-07-29T11:07:18.008Z,1.45
2022-07-29T11:09:46.694Z,2.00
2022-07-29T11:12:32.790Z,1.60
2022-07-29T11:15:01.595Z,1.70
2022-07-29T11:17:37.505Z,1.50
2022-07-29T11:20:37.855Z,1.70
2022-07-29T11:23:33.520Z,1.55
2022-07-29T11:26:18.801Z,1.67
2022-07-29T11:28:53.034Z,1.60
2022-07-29T11:31:35.934Z,1.60
2022-07-29T11:34:20.751Z,1.77
2022-07-29T11:37:27.790Z,1.30
2022-07-29T11:40:01.554Z,1.67
2022-07-29T11:42:34.303Z,1.80
2022-07-29T11:45:09.070Z,1.85
2022-07-29T11:48:03.669Z,1.73
2022-07-29T11:50:48.305Z,1.80
2022-07-29T11:53:17.433Z,1.77
2022-07-29T11:55:51.346Z,1.80
2022-07-29T11:58:27.335Z,2.03
2022-07-29T12:00:56.266Z,1.92
2022-07-29T12:03:32.985Z,2.53
2022-07-29T12:06:03.398Z,1.80
2022-07-29T12:08:31.861Z,2.00
2022-07-29T12:10:59.667Z,1.77
2022-07-29T12:13:37.616Z,1.70
2022-07-29T12:16:07.195Z,1.67
2022-07-29T12:18:35.121Z,1.80
2022-07-29T12:21:06.525Z,2.13
2022-07-29T12:23:35.678Z,1.75
2022-07-29T12:26:10.576Z,1.70
2022-07-29T12:28:40.003Z,1.75
2022-07-29T12:31:14.727Z,1.80
2022-07-29T12:33:42.458Z,1.75
2022-07-29T12:36:15.603Z,1.55
2022-07-29T12:38:45.471Z,1.90
2022-07-29T12:41:13.151Z,1.60
2022-07-29T12:43:53.172Z,1.45
2022-07-29T12:46:20.847Z,1.75
2022-07-29T12:48:52.088Z,2.38
2022-07-29T12:51:19.497Z,1.65
2022-07-29T12:54:09.429Z,1.73
2022-07-29T12:56:45.205Z,1.75
2022-07-29T12:59:17.755Z,1.88
2022-07-29T13:01:47.987Z,1.80
2022-07-29T13:04:29.280Z,1.55
2022-07-29T13:07:15.631Z,1.60
2022-07-29T13:09:44.055Z,1.70
2022-07-29T13:12:13.498Z,2.00
2022-07-29T13:14:48.735Z,1.85
2022-07-29T13:17:20.674Z,1.63
2022-07-29T13:19:53.323Z,1.70
2022-07-29T13:22:22.686Z,1.55
2022-07-29T13:24:53.411Z,1.83
2022-07-29T13:27:22.118Z,2.20
2022-07-29T13:29:53.553Z,1.60
2022-07-29T13:32:28.735Z,1.52
2022-07-29T13:34:59.337Z,1.50
2022-07-29T13:37:52.582Z,1.90
2022-07-29T13:40:20.302Z,1.73
2022-07-29T13:42:48.039Z,1.73
2022-07-29T13:45:15.825Z,1.70
2022-07-29T13:47:50.503Z,2.00
2022-07-29T13:50:20.202Z,1.73
2022-07-29T13:52:49.681Z,2.08
2022-07-29T13:55:20.889Z,2.10
2022-07-29T13:57:48.889Z,1.85
2022-07-29T14:00:17.401Z,2.20
2022-07-29T14:02:45.068Z,1.65
2022-07-29T14:05:13.070Z,1.98
2022-07-29T14:07:40.891Z,2.08
2022-07-29T14:10:08.914Z,1.67
2022-07-29T14:12:37.466Z,2.00
2022-07-29T14:15:05.279Z,1.90
2022-07-29T14:17:33.763Z,1.70
2022-07-29T14:20:02.415Z,2.13
2022-07-29T14:22:30.410Z,1.95
2022-07-29T14:24:58.527Z,1.98
2022-07-29T14:27:41.268Z,2.70
2022-07-29T14:30:09.932Z,2.20
2022-07-29T14:32:37.493Z,2.38
2022-07-29T14:35:05.355Z,2.30
2022-07-29T14:37:40.355Z,2.40
2022-07-29T14:40:08.682Z,2.35
2022-07-29T14:42:37.375Z,2.42
2022-07-29T14:45:06.716Z,2.60
2022-07-29T14:47:35.650Z,2.53
2022-07-29T14:50:03.393Z,2.20
2022-07-29T14:52:31.038Z,2.97
2022-07-29T14:54:58.728Z,2.30
2022-07-29T15:08:48.551Z,2.30
2022-07-29T15:11:16.204Z,2.15
2022-07-29T15:13:43.743Z,2.20
2022-07-29T15:16:11.451Z,2.22
2022-07-29T15:18:39.486Z,2.03
2022-07-29T15:21:10.636Z,2.20
2022-07-29T15:23:38.163Z,2.67
2022-07-29T15:26:05.953Z,2.20
2022-07-29T15:28:33.531Z,2.20
2022-07-29T15:31:01.237Z,2.10
2022-07-29T15:33:28.912Z,2.00
2022-07-29T15:35:57.888Z,1.95
2022-07-29T15:38:28.911Z,2.10
2022-07-29T15:40:57.128Z,2.05
2022-07-29T15:43:24.933Z,1.95
2022-07-29T15:46:12.702Z,1.90
2022-07-29T15:48:40.940Z,1.80
2022-07-29T15:51:08.687Z,2.00
2022-07-29T15:53:36.271Z,2.13
2022-07-29T16:06:39.746Z,1.67
2022-07-29T16:09:32.382Z,2.10
2022-07-29T16:12:00.091Z,2.22
2022-07-29T16:14:28.474Z,1.80
2022-07-29T16:16:56.763Z,1.80
2022-07-29T16:19:24.635Z,1.60
2022-07-29T16:21:54.945Z,1.58
2022-07-29T16:24:43.514Z,1.70
2022-07-29T16:27:11.049Z,2.15
2022-07-29T16:29:38.599Z,1.80
2022-07-29T16:32:06.845Z,2.17
2022-07-29T16:34:34.638Z,1.40
2022-07-29T16:37:05.576Z,1.77
2022-07-29T16:39:33.927Z,1.92
2022-07-29T16:42:05.033Z,2.30
2022-07-29T16:44:33.960Z,3.85
2022-07-29T16:47:02.438Z,1.80
2022-07-29T16:49:31.286Z,2.10
2022-07-29T16:51:58.932Z,1.70
2022-07-29T16:54:27.230Z,2.13
2022-07-29T16:56:55.737Z,2.03
2022-07-29T16:59:23.698Z,1.73
2022-07-29T17:01:51.326Z,2.15
2022-07-29T17:04:18.961Z,2.20
2022-07-29T17:06:46.577Z,2.10
2022-07-29T17:09:15.374Z,2.05
2022-07-29T17:11:54.049Z,2.03
2022-07-29T17:14:26.051Z,2.00
2022-07-29T17:17:00.696Z,1.95
2022-07-29T17:19:30.514Z,1.73
2022-07-29T17:22:05.021Z,2.33
2022-07-29T17:24:38.327Z,1.90
2022-07-29T17:27:07.238Z,2.08
2022-07-29T17:29:37.718Z,2.05
2022-07-29T17:32:07.523Z,1.88
2022-07-29T17:34:36.726Z,1.80
2022-07-29T17:37:06.895Z,1.73
2022-07-29T17:39:35.773Z,2.00
2022-07-29T17:42:03.965Z,1.98
2022-07-29T17:44:32.968Z,1.92
2022-07-29T17:47:04.547Z,2.20
2022-07-29T17:49:32.269Z,2.22
2022-07-29T17:52:01.163Z,1.90
2022-07-29T17:54:28.964Z,2.20
2022-07-29T17:56:56.760Z,2.20
2022-07-29T17:59:24.475Z,2.30
2022-07-29T18:01:53.325Z,1.98
2022-07-29T18:04:23.448Z,2.17
2022-07-29T18:06:51.535Z,2.40
2022-07-29T18:09:19.239Z,3.40
2022-07-29T18:11:47.753Z,2.45
2022-07-29T18:14:15.871Z,2.20
2022-07-29T18:16:43.627Z,2.05
2022-07-29T18:19:11.206Z,2.20
2022-07-29T18:21:51.862Z,2.28
2022-07-29T18:24:25.234Z,2.28
2022-07-29T18:27:03.184Z,1.88
2022-07-29T18:29:30.821Z,2.47
2022-07-29T18:32:00.163Z,2.70
2022-07-29T18:34:27.873Z,2.13
2022-07-29T18:36:55.832Z,2.00
2022-07-29T18:39:23.576Z,1.90
2022-07-29T18:41:51.805Z,2.15
2022-07-29T18:44:22.675Z,2.08
2022-07-29T18:46:50.769Z,2.05
2022-07-29T18:49:18.586Z,2.00
2022-07-29T18:51:46.280Z,1.90
2022-07-29T18:54:13.786Z,2.22
2022-07-29T18:56:41.381Z,1.98
2022-07-29T18:59:08.986Z,1.90
2022-07-29T19:01:37.986Z,2.13
2022-07-29T19:04:05.862Z,1.98
2022-07-29T19:06:33.952Z,2.13
2022-07-29T19:09:01.700Z,2.30
2022-07-29T19:11:29.446Z,2.15
2022-07-29T19:13:57.423Z,2.00
2022-07-29T19:16:25.155Z,2.30
2022-07-29T19:18:52.893Z,2.25
2022-07-29T19:21:20.566Z,2.13
2022-07-29T19:24:05.985Z,2.05
2022-07-29T19:26:36.848Z,2.15
2022-07-29T19:29:04.768Z,2.30
2022-07-29T19:31:32.401Z,2.55
2022-07-29T19:34:00.010Z,2.42
2022-07-29T19:36:28.675Z,2.05
2022-07-29T19:38:56.330Z,2.05
2022-07-29T19:41:23.891Z,2.10
2022-07-29T19:43:53.016Z,2.00
2022-07-29T19:46:21.595Z,2.10
2022-07-29T19:48:49.474Z,1.77
2022-07-29T19:51:17.192Z,1.95
2022-07-29T19:53:44.813Z,1.88
2022-07-29T19:56:12.323Z,1.80
2022-07-29T19:58:41.193Z,1.70
2022-07-29T20:01:15.176Z,1.88
2022-07-29T20:03:44.898Z,2.80
2022-07-29T20:06:12.978Z,2.55
2022-07-29T20:08:40.815Z,2.05
2022-07-29T20:11:08.440Z,2.20
2022-07-29T20:13:36.124Z,1.90
2022-07-29T20:16:05.830Z,2.13
2022-07-29T20:18:33.409Z,1.90
2022-07-29T20:21:27.016Z,2.05
2022-07-29T20:23:56.998Z,1.98
2022-07-29T20:26:24.506Z,2.22
2022-07-29T20:28:52.117Z,1.92
2022-07-29T20:31:19.725Z,2.17
2022-07-29T20:33:48.522Z,2.25
2022-07-29T20:36:16.304Z,1.90
2022-07-29T20:38:43.901Z,1.98
2022-07-29T20:41:11.544Z,2.10
2022-07-29T20:43:39.327Z,1.85
2022-07-29T20:46:08.028Z,2.50
2022-07-29T20:48:35.612Z,2.22
2022-07-29T20:51:03.376Z,1.80
2022-07-29T20:53:31.023Z,1.90
2022-07-29T20:56:01.750Z,2.15
2022-07-29T20:58:29.472Z,2.03
2022-07-29T21:00:58.124Z,2.22
2022-07-29T21:04:04.124Z,2.05
2022-07-29T21:06:31.769Z,2.15
2022-07-29T21:09:01.220Z,2.50
2022-07-29T21:11:43.258Z,2.17
2022-07-29T21:14:30.981Z,2.35
2022-07-29T21:16:58.763Z,2.22
2022-07-29T21:19:26.869Z,2.30
2022-07-29T21:21:54.385Z,2.30
2022-07-29T21:24:22.013Z,2.00
2022-07-29T21:27:11.020Z,2.40
2022-07-29T21:29:38.464Z,2.15
2022-07-29T21:32:06.375Z,2.22
2022-07-29T21:34:34.038Z,2.22
2022-07-29T21:37:01.668Z,2.42
2022-07-29T21:39:29.491Z,2.35
2022-07-29T21:41:57.052Z,2.55
2022-07-29T21:44:24.777Z,2.30
2022-07-29T21:46:52.412Z,2.75
2022-07-29T21:49:20.469Z,2.67
2022-07-29T21:51:50.047Z,2.53
2022-07-29T21:54:18.565Z,2.50
2022-07-29T21:56:51.134Z,2.45
2022-07-29T21:59:19.082Z,2.67
2022-07-29T22:01:47.775Z,2.58
2022-07-29T22:04:15.451Z,2.72
2022-07-29T22:06:43.038Z,2.40
2022-07-29T22:09:10.616Z,2.63
2022-07-29T22:11:38.188Z,2.95
2022-07-29T22:14:07.544Z,3.15
2022-07-29T22:16:35.269Z,2.83
2022-07-29T22:19:04.026Z,3.20
2022-07-29T22:21:31.762Z,3.00
2022-07-29T22:23:59.426Z,2.80
2022-07-29T22:26:29.111Z,2.83
2022-07-29T22:28:57.601Z,2.70
2022-07-29T22:31:26.087Z,3.00
2022-07-29T22:33:53.789Z,2.95
2022-07-29T22:36:21.538Z,2.80
2022-07-29T22:38:52.007Z,2.85
2022-07-29T22:41:19.732Z,3.15
2022-07-29T22:43:48.348Z,2.88
2022-07-29T22:46:16.051Z,2.90
2022-07-29T22:48:43.741Z,3.50
2022-07-29T22:51:11.446Z,3.28
2022-07-29T22:53:39.039Z,3.13
2022-07-29T22:56:06.778Z,3.20
2022-07-29T22:58:35.413Z,3.50
2022-07-29T23:01:03.008Z,3.65
2022-07-29T23:03:30.597Z,3.47
2022-07-29T23:06:17.923Z,3.38
2022-07-29T23:08:45.329Z,3.53
2022-07-29T23:11:13.028Z,3.67
2022-07-29T23:13:40.667Z,3.47
2022-07-29T23:16:08.456Z,4.07
2022-07-29T23:18:35.986Z,4.07
2022-07-29T23:21:03.675Z,3.65
2022-07-29T23:23:32.600Z,3.33
2022-07-29T23:26:00.225Z,4.10
2022-07-29T23:28:27.584Z,4.25
2022-07-29T23:30:56.128Z,4.43
2022-07-29T23:33:23.637Z,4.32
2022-07-29T23:35:51.122Z,4.50
2022-07-29T23:38:18.529Z,4.20
2022-07-29T23:40:46.001Z,4.57
2022-07-29T23:43:13.563Z,4.60
2022-07-29T23:45:44.499Z,5.53
2022-07-29T23:48:12.596Z,6.30
2022-07-29T23:50:40.023Z,6.00
2022-07-29T23:53:07.655Z,6.82
2022-07-29T23:55:37.780Z,5.80
2022-07-29T23:58:06.612Z,6.35
